createdAt,value
2019-05-17T00:00:24.382Z,99.99
2019-05-17T00:01:26.881Z,99.99
2019-05-17T00:02:26.416Z,99.99
2019-05-17T00:03:24.329Z,99.99
2019-05-17T00:04:24.321Z,99.99
2019-05-17T00:05:26.358Z,99.99
2019-05-17T00:06:24.314Z,99.99
2019-05-17T00:07:24.297Z,99.99
2019-05-17T00:08:31.956Z,99.99
2019-05-17T00:09:26.755Z,99.99
2019-05-17T00:10:26.375Z,99.99
2019-05-17T00:11:24.241Z,99.99
2019-05-17T00:12:24.247Z,99.99
2019-05-17T00:13:26.714Z,99.99
2019-05-17T00:14:24.209Z,99.99
2019-05-17T00:15:24.198Z,99.99
2019-05-17T00:16:24.185Z,99.99
2019-05-17T00:17:26.608Z,99.99
2019-05-17T00:18:26.327Z,99.99
2019-05-17T00:19:26.181Z,99.99
2019-05-17T00:20:26.466Z,99.99
2019-05-17T00:21:24.139Z,99.99
2019-05-17T00:22:24.119Z,99.99
2019-05-17T00:23:24.119Z,99.99
2019-05-17T00:24:26.360Z,99.99
2019-05-17T00:25:24.089Z,99.99
2019-05-17T00:26:24.075Z,99.99
2019-05-17T00:27:26.363Z,99.99
2019-05-17T00:28:24.056Z,99.99
2019-05-17T00:29:26.322Z,99.99
2019-05-17T00:30:26.383Z,99.99
2019-05-17T00:31:26.173Z,99.99
2019-05-17T00:32:24.012Z,99.99
2019-05-17T00:33:24.001Z,99.99
2019-05-17T00:34:23.989Z,99.99
2019-05-17T00:35:23.978Z,99.99
2019-05-17T00:36:23.987Z,99.99
2019-05-17T00:37:26.322Z,99.99
2019-05-17T00:38:23.950Z,99.99
2019-05-17T00:39:23.943Z,99.99
2019-05-17T00:40:23.926Z,99.99
2019-05-17T00:41:23.912Z,99.99
2019-05-17T00:42:26.276Z,99.99
2019-05-17T00:43:26.117Z,99.99
2019-05-17T00:44:23.879Z,99.99
2019-05-17T00:45:23.871Z,99.99
2019-05-17T00:46:23.861Z,99.99
2019-05-17T00:47:23.857Z,99.99
2019-05-17T00:48:23.864Z,99.99
2019-05-17T00:49:23.830Z,99.99
2019-05-17T00:50:23.815Z,99.99
2019-05-17T00:51:23.808Z,99.99
2019-05-17T00:52:23.797Z,99.99
2019-05-17T00:53:23.787Z,99.99
2019-05-17T00:54:23.793Z,99.99
2019-05-17T00:55:23.774Z,99.99
2019-05-17T00:56:23.766Z,99.99
2019-05-17T00:57:23.740Z,99.99
2019-05-17T00:58:23.728Z,99.99
2019-05-17T00:59:23.725Z,99.99
2019-05-17T01:00:23.730Z,99.99
2019-05-17T01:01:23.709Z,99.99
2019-05-17T01:02:23.699Z,99.99
2019-05-17T01:03:23.679Z,99.99
2019-05-17T01:04:23.664Z,99.99
2019-05-17T01:05:23.654Z,99.99
2019-05-17T01:06:23.664Z,99.99
2019-05-17T01:07:23.632Z,99.99
2019-05-17T01:08:23.639Z,99.99
2019-05-17T01:09:23.614Z,99.99
2019-05-17T01:10:23.598Z,99.99
2019-05-17T01:11:23.587Z,99.99
2019-05-17T01:12:23.593Z,99.99
2019-05-17T01:13:23.564Z,99.99
2019-05-17T01:14:23.561Z,99.99
2019-05-17T01:15:23.543Z,99.99
2019-05-17T01:16:23.535Z,99.99
2019-05-17T01:17:23.526Z,99.99
2019-05-17T01:18:23.528Z,99.99
2019-05-17T01:19:23.501Z,99.99
2019-05-17T01:20:23.510Z,99.99
2019-05-17T01:21:23.476Z,99.99
2019-05-17T01:22:23.468Z,99.99
2019-05-17T01:23:23.454Z,99.99
2019-05-17T01:24:23.466Z,99.99
2019-05-17T01:25:23.451Z,99.99
2019-05-17T01:26:23.424Z,99.99
2019-05-17T01:27:23.412Z,99.99
2019-05-17T01:28:23.399Z,99.99
2019-05-17T01:29:23.392Z,99.99
2019-05-17T01:30:23.402Z,99.99
2019-05-17T01:31:23.367Z,99.99
2019-05-17T01:32:23.359Z,99.99
2019-05-17T01:33:23.371Z,99.99
2019-05-17T01:34:23.342Z,99.99
2019-05-17T01:35:23.326Z,99.99
2019-05-17T01:36:23.342Z,99.99
2019-05-17T01:37:23.304Z,99.99
2019-05-17T01:38:23.315Z,99.99
2019-05-17T01:39:23.283Z,99.99
2019-05-17T01:40:23.275Z,99.99
2019-05-17T01:41:23.263Z,99.99
2019-05-17T01:42:23.275Z,99.99
2019-05-17T01:43:23.241Z,99.99
2019-05-17T01:44:23.255Z,99.99
2019-05-17T01:45:23.217Z,99.99
2019-05-17T01:46:23.209Z,99.99
2019-05-17T01:47:23.200Z,99.99
2019-05-17T01:48:23.208Z,99.99
2019-05-17T01:49:23.182Z,99.99
2019-05-17T01:50:23.166Z,99.99
2019-05-17T01:51:23.156Z,99.99
2019-05-17T01:52:23.149Z,99.99
2019-05-17T01:53:23.133Z,99.99
2019-05-17T01:54:23.141Z,99.99
2019-05-17T01:55:23.109Z,99.99
2019-05-17T01:56:23.102Z,99.99
2019-05-17T01:57:23.093Z,99.99
2019-05-17T01:58:23.079Z,99.99
2019-05-17T01:59:23.069Z,99.99
2019-05-17T02:00:23.077Z,99.99
2019-05-17T02:01:23.058Z,99.99
2019-05-17T02:02:23.038Z,99.99
2019-05-17T02:03:23.024Z,99.99
2019-05-17T02:04:23.018Z,99.99
2019-05-17T02:05:23.003Z,99.99
2019-05-17T02:06:23.009Z,99.99
2019-05-17T02:07:22.993Z,99.99
2019-05-17T02:08:22.978Z,99.99
2019-05-17T02:09:34.852Z,99.99
2019-05-17T02:10:23.948Z,99.99
2019-05-17T02:11:22.945Z,99.99
2019-05-17T02:12:22.948Z,99.99
2019-05-17T02:13:22.917Z,99.99
2019-05-17T02:14:22.906Z,99.99
2019-05-17T02:15:22.909Z,99.99
2019-05-17T02:16:22.896Z,99.99
2019-05-17T02:17:22.880Z,99.99
2019-05-17T02:18:22.888Z,99.99
2019-05-17T02:19:22.852Z,99.99
2019-05-17T02:20:22.845Z,99.99
2019-05-17T02:21:22.830Z,99.99
2019-05-17T02:22:22.830Z,99.99
2019-05-17T02:23:22.810Z,99.99
2019-05-17T02:24:22.820Z,99.99
2019-05-17T02:25:22.788Z,99.99
2019-05-17T02:26:22.783Z,99.99
2019-05-17T02:27:25.349Z,99.99
2019-05-17T02:28:23.757Z,99.99
2019-05-17T02:29:22.745Z,99.99
2019-05-17T02:30:23.511Z,99.99
2019-05-17T02:31:24.755Z,99.99
2019-05-17T02:32:23.457Z,99.99
2019-05-17T02:33:23.583Z,99.99
2019-05-17T02:34:23.349Z,99.99
2019-05-17T02:35:23.260Z,99.99
2019-05-17T02:36:23.016Z,99.99
2019-05-17T02:37:23.237Z,99.99
2019-05-17T02:38:22.673Z,99.99
2019-05-17T02:39:23.314Z,99.99
2019-05-17T02:40:22.823Z,99.99
2019-05-17T02:41:22.820Z,99.99
2019-05-17T02:42:22.630Z,99.99
2019-05-17T02:43:23.561Z,99.99
2019-05-17T02:44:23.522Z,99.99
2019-05-17T02:45:23.401Z,99.99
2019-05-17T02:46:23.167Z,99.99
2019-05-17T02:47:23.144Z,99.99
2019-05-17T02:48:23.389Z,99.99
2019-05-17T02:49:23.575Z,99.99
2019-05-17T02:50:23.324Z,99.99
2019-05-17T02:51:23.704Z,99.99
2019-05-17T02:52:23.108Z,99.99
2019-05-17T02:53:23.140Z,99.99
2019-05-17T02:54:23.527Z,99.99
2019-05-17T02:55:23.260Z,99.99
2019-05-17T02:56:23.213Z,99.99
2019-05-17T02:57:23.319Z,99.99
2019-05-17T02:58:23.278Z,99.99
2019-05-17T02:59:23.227Z,99.99
2019-05-17T03:00:23.871Z,99.99
2019-05-17T03:01:23.140Z,99.99
2019-05-17T03:02:27.546Z,99.99
2019-05-17T03:03:23.851Z,99.99
2019-05-17T03:04:23.583Z,99.99
2019-05-17T03:05:23.247Z,99.85
2019-05-17T03:06:22.865Z,99.95
2019-05-17T03:07:23.172Z,99.99
2019-05-17T03:08:23.534Z,99.95
2019-05-17T03:09:22.995Z,99.74
2019-05-17T03:10:28.479Z,99.99
2019-05-17T03:11:23.313Z,99.99
2019-05-17T03:12:23.674Z,99.95
2019-05-17T03:13:23.472Z,99.64
2019-05-17T03:14:22.926Z,99.74
2019-05-17T03:15:23.446Z,99.99
2019-05-17T03:16:23.670Z,99.74
2019-05-17T03:17:22.916Z,99.74
2019-05-17T03:18:23.058Z,99.64
2019-05-17T03:19:23.520Z,99.99
2019-05-17T03:20:23.229Z,99.85
2019-05-17T03:21:22.929Z,99.99
2019-05-17T03:22:23.176Z,99.99
2019-05-17T03:23:23.372Z,99.99
2019-05-17T03:24:22.726Z,99.74
2019-05-17T03:25:23.895Z,99.99
2019-05-17T03:26:23.066Z,99.99
2019-05-17T03:27:23.281Z,99.99
2019-05-17T03:28:23.535Z,99.99
2019-05-17T03:29:22.894Z,99.99
2019-05-17T03:30:25.788Z,99.95
2019-05-17T03:31:26.195Z,99.99
2019-05-17T03:32:26.668Z,99.99
2019-05-17T03:33:26.454Z,99.99
2019-05-17T03:34:26.663Z,99.99
2019-05-17T03:35:26.642Z,99.99
2019-05-17T03:36:26.196Z,99.85
2019-05-17T03:37:30.251Z,99.95
2019-05-17T03:38:22.988Z,99.99
2019-05-17T03:39:22.669Z,99.99
2019-05-17T03:40:46.965Z,99.99
2019-05-17T03:41:24.848Z,99.95
2019-05-17T03:42:22.948Z,99.70
2019-05-17T03:43:22.586Z,99.74
2019-05-17T03:44:22.543Z,99.85
2019-05-17T03:45:22.854Z,99.74
2019-05-17T03:46:23.181Z,99.95
2019-05-17T03:47:22.686Z,99.99
2019-05-17T03:48:22.253Z,99.99
2019-05-17T03:49:22.430Z,99.99
2019-05-17T03:50:22.676Z,99.95
2019-05-17T03:51:23.358Z,99.80
2019-05-17T03:52:22.431Z,99.85
2019-05-17T03:53:22.819Z,99.90
2019-05-17T03:54:22.615Z,99.99
2019-05-17T03:55:23.484Z,99.99
2019-05-17T03:56:22.450Z,99.99
2019-05-17T03:57:23.910Z,99.74
2019-05-17T03:58:23.523Z,99.64
2019-05-17T03:59:24.200Z,99.64
2019-05-17T04:00:23.265Z,99.74
2019-05-17T04:01:23.159Z,99.64
2019-05-17T04:02:23.100Z,99.74
2019-05-17T04:03:22.851Z,99.74
2019-05-17T04:04:22.880Z,99.85
2019-05-17T04:05:22.700Z,99.74
2019-05-17T04:06:23.897Z,99.64
2019-05-17T04:07:23.566Z,99.95
2019-05-17T04:08:23.010Z,99.54
2019-05-17T04:09:22.354Z,99.60
2019-05-17T04:10:22.877Z,99.74
2019-05-17T04:11:31.099Z,99.74
2019-05-17T04:12:23.302Z,99.64
2019-05-17T04:13:23.399Z,99.70
2019-05-17T04:14:22.553Z,99.64
2019-05-17T04:15:23.926Z,99.74
2019-05-17T04:16:23.777Z,99.74
2019-05-17T04:17:22.773Z,99.70
2019-05-17T04:18:23.517Z,99.70
2019-05-17T04:19:22.962Z,99.80
2019-05-17T04:20:22.357Z,99.08
2019-05-17T04:21:23.481Z,99.54
2019-05-17T04:22:23.914Z,99.18
2019-05-17T04:23:23.205Z,99.80
2019-05-17T04:24:23.047Z,99.08
2019-05-17T04:25:23.417Z,99.29
2019-05-17T04:26:22.955Z,99.23
2019-05-17T04:27:22.903Z,99.49
2019-05-17T04:28:22.927Z,99.90
2019-05-17T04:29:22.658Z,99.08
2019-05-17T04:30:23.386Z,99.08
2019-05-17T04:31:22.745Z,99.08
2019-05-17T04:32:23.304Z,99.29
2019-05-17T04:33:23.301Z,99.39
2019-05-17T04:34:22.449Z,99.29
2019-05-17T04:35:23.294Z,99.29
2019-05-17T04:36:22.447Z,99.29
2019-05-17T04:37:22.823Z,99.70
2019-05-17T04:38:23.606Z,99.70
2019-05-17T04:39:22.644Z,99.39
2019-05-17T04:40:23.169Z,99.39
2019-05-17T04:41:39.418Z,99.80
2019-05-17T04:42:22.808Z,99.80
2019-05-17T04:43:23.046Z,99.70
2019-05-17T04:44:23.145Z,99.80
2019-05-17T04:45:23.036Z,99.70
2019-05-17T04:46:23.623Z,99.70
2019-05-17T04:47:22.994Z,99.70
2019-05-17T04:48:23.280Z,99.70
2019-05-17T04:49:24.273Z,99.60
2019-05-17T04:50:23.122Z,99.90
2019-05-17T04:51:23.231Z,99.24
2019-05-17T04:52:22.738Z,98.88
2019-05-17T04:53:23.367Z,98.88
2019-05-17T04:54:22.707Z,99.90
2019-05-17T04:55:23.062Z,99.49
2019-05-17T04:56:22.770Z,99.55
2019-05-17T04:57:23.150Z,99.76
2019-05-17T04:58:23.257Z,99.65
2019-05-17T04:59:24.012Z,99.55
2019-05-17T05:00:21.952Z,98.83
2019-05-17T05:01:23.537Z,99.34
2019-05-17T05:02:23.584Z,99.96
2019-05-17T05:03:23.039Z,99.55
2019-05-17T05:04:22.582Z,99.55
2019-05-17T05:05:22.767Z,99.55
2019-05-17T05:06:23.290Z,98.93
2019-05-17T05:07:22.633Z,99.14
2019-05-17T05:08:22.430Z,99.14
2019-05-17T05:09:23.120Z,99.14
2019-05-17T05:10:22.509Z,99.44
2019-05-17T05:11:23.378Z,99.44
2019-05-17T05:12:22.846Z,99.86
2019-05-17T05:13:22.700Z,98.83
2019-05-17T05:14:23.313Z,99.65
2019-05-17T05:15:22.567Z,99.86
2019-05-17T05:16:22.542Z,99.76
2019-05-17T05:17:22.190Z,99.76
2019-05-17T05:18:22.159Z,99.55
2019-05-17T05:19:22.350Z,99.24
2019-05-17T05:20:22.106Z,99.44
2019-05-17T05:21:23.038Z,99.65
2019-05-17T05:22:22.470Z,99.34
2019-05-17T05:23:23.770Z,99.14
2019-05-17T05:24:22.244Z,99.55
2019-05-17T05:25:21.645Z,99.86
2019-05-17T05:26:22.279Z,99.65
2019-05-17T05:27:22.252Z,99.65
2019-05-17T05:28:22.537Z,99.86
2019-05-17T05:29:21.672Z,99.76
2019-05-17T05:30:22.548Z,99.65
2019-05-17T05:31:22.785Z,99.86
2019-05-17T05:32:22.056Z,98.83
2019-05-17T05:33:22.178Z,99.55
2019-05-17T05:34:21.617Z,99.40
2019-05-17T05:35:22.433Z,98.83
2019-05-17T05:36:22.097Z,99.24
2019-05-17T05:37:23.133Z,99.09
2019-05-17T05:38:21.648Z,99.34
2019-05-17T05:39:22.708Z,99.04
2019-05-17T05:40:21.390Z,98.99
2019-05-17T05:41:22.554Z,99.30
2019-05-17T05:42:22.103Z,98.79
2019-05-17T05:43:22.645Z,98.88
2019-05-17T05:44:21.536Z,99.09
2019-05-17T05:45:22.506Z,99.09
2019-05-17T05:46:22.376Z,98.88
2019-05-17T05:47:22.175Z,98.88
2019-05-17T05:48:21.754Z,98.88
2019-05-17T05:49:21.694Z,99.09
2019-05-17T05:50:21.806Z,98.99
2019-05-17T05:51:21.641Z,99.09
2019-05-17T05:52:21.843Z,99.60
2019-05-17T05:53:21.824Z,99.30
2019-05-17T05:54:22.480Z,98.68
2019-05-17T05:55:23.181Z,98.74
2019-05-17T05:56:22.029Z,98.79
2019-05-17T05:57:21.895Z,98.74
2019-05-17T05:58:23.573Z,98.06
2019-05-17T05:59:22.478Z,98.16
2019-05-17T06:00:22.131Z,98.27
2019-05-17T06:01:21.942Z,98.16
2019-05-17T06:02:21.740Z,98.53
2019-05-17T06:03:22.442Z,98.37
2019-05-17T06:04:22.302Z,98.02
2019-05-17T06:05:21.908Z,98.43
2019-05-17T06:06:21.547Z,98.53
2019-05-17T06:07:21.639Z,98.33
2019-05-17T06:08:22.524Z,97.81
2019-05-17T06:09:22.293Z,98.22
2019-05-17T06:10:21.846Z,98.12
2019-05-17T06:11:21.591Z,97.50
2019-05-17T06:12:24.706Z,97.61
2019-05-17T06:13:21.838Z,98.02
2019-05-17T06:14:21.613Z,98.12
2019-05-17T06:15:21.950Z,97.61
2019-05-17T06:16:22.546Z,97.50
2019-05-17T06:17:21.644Z,97.56
2019-05-17T06:18:22.499Z,97.97
2019-05-17T06:19:22.234Z,98.07
2019-05-17T06:20:22.338Z,97.56
2019-05-17T06:21:22.450Z,97.45
2019-05-17T06:22:22.239Z,97.15
2019-05-17T06:23:20.247Z,97.15
2019-05-17T06:24:22.409Z,97.45
2019-05-17T06:25:23.385Z,97.56
2019-05-17T06:26:23.479Z,96.94
2019-05-17T06:27:21.501Z,97.62
2019-05-17T06:28:22.166Z,97.25
2019-05-17T06:29:22.155Z,97.45
2019-05-17T06:30:21.997Z,97.31
2019-05-17T06:31:20.138Z,96.90
2019-05-17T06:32:22.768Z,97.31
2019-05-17T06:33:28.099Z,97.05
2019-05-17T06:34:22.300Z,96.73
2019-05-17T06:35:21.744Z,97.66
2019-05-17T06:36:21.716Z,97.05
2019-05-17T06:37:22.209Z,96.90
2019-05-17T06:38:22.258Z,97.00
2019-05-17T06:39:22.269Z,97.10
2019-05-17T06:40:21.675Z,96.90
2019-05-17T06:41:21.545Z,97.52
2019-05-17T06:42:21.667Z,96.94
2019-05-17T06:43:21.474Z,96.59
2019-05-17T06:44:21.614Z,96.43
2019-05-17T06:45:22.075Z,96.12
2019-05-17T06:46:21.968Z,96.64
2019-05-17T06:47:22.391Z,97.66
2019-05-17T06:48:22.317Z,97.41
2019-05-17T06:49:22.264Z,97.10
2019-05-17T06:50:19.944Z,97.36
2019-05-17T06:51:21.959Z,97.52
2019-05-17T06:52:22.502Z,97.41
2019-05-17T06:53:21.863Z,96.90
2019-05-17T06:54:21.615Z,96.44
2019-05-17T06:55:19.890Z,96.44
2019-05-17T06:56:19.901Z,96.14
2019-05-17T06:57:19.863Z,95.42
2019-05-17T06:58:22.101Z,95.52
2019-05-17T06:59:19.842Z,96.23
2019-05-17T07:00:23.784Z,95.52
2019-05-17T07:01:19.832Z,95.42
2019-05-17T07:02:19.857Z,95.93
2019-05-17T07:03:19.943Z,95.83
2019-05-17T07:04:19.810Z,95.62
2019-05-17T07:05:20.115Z,95.93
2019-05-17T07:06:21.487Z,95.72
2019-05-17T07:07:20.734Z,95.52
2019-05-17T07:08:20.175Z,95.78
2019-05-17T07:09:19.747Z,95.27
2019-05-17T07:10:19.770Z,95.17
2019-05-17T07:11:21.030Z,95.89
2019-05-17T07:12:20.337Z,95.47
2019-05-17T07:13:19.917Z,94.96
2019-05-17T07:14:20.111Z,94.96
2019-05-17T07:15:19.888Z,95.06
2019-05-17T07:16:19.795Z,94.96
2019-05-17T07:17:19.803Z,94.40
2019-05-17T07:18:19.636Z,94.24
2019-05-17T07:19:19.799Z,94.14
2019-05-17T07:20:19.613Z,94.34
2019-05-17T07:21:20.568Z,94.65
2019-05-17T07:22:21.257Z,94.76
2019-05-17T07:23:19.806Z,95.37
2019-05-17T07:24:19.732Z,95.37
2019-05-17T07:25:19.868Z,94.85
2019-05-17T07:26:19.812Z,94.65
2019-05-17T07:27:19.534Z,94.34
2019-05-17T07:28:19.990Z,94.65
2019-05-17T07:29:19.509Z,95.06
2019-05-17T07:30:19.644Z,95.06
2019-05-17T07:31:22.651Z,94.85
2019-05-17T07:32:19.531Z,94.70
2019-05-17T07:33:19.943Z,95.47
2019-05-17T07:34:19.985Z,95.27
2019-05-17T07:35:19.850Z,94.85
2019-05-17T07:36:19.752Z,94.96
2019-05-17T07:37:19.637Z,95.06
2019-05-17T07:38:19.909Z,95.17
2019-05-17T07:39:20.477Z,95.72
2019-05-17T07:40:19.823Z,95.37
2019-05-17T07:41:20.400Z,95.93
2019-05-17T07:42:19.610Z,95.83
2019-05-17T07:43:20.750Z,96.44
2019-05-17T07:44:20.522Z,96.23
2019-05-17T07:45:20.319Z,96.44
2019-05-17T07:46:20.660Z,96.23
2019-05-17T07:47:20.331Z,95.97
2019-05-17T07:48:19.958Z,96.28
2019-05-17T07:49:20.017Z,96.39
2019-05-17T07:50:20.041Z,96.28
2019-05-17T07:51:19.581Z,96.18
2019-05-17T07:52:20.636Z,96.69
2019-05-17T07:53:20.148Z,96.28
2019-05-17T07:54:19.736Z,96.48
2019-05-17T07:55:22.851Z,96.69
2019-05-17T07:56:20.021Z,96.39
2019-05-17T07:57:20.710Z,97.52
2019-05-17T07:58:21.466Z,97.36
2019-05-17T07:59:20.003Z,97.05
2019-05-17T08:00:20.141Z,97.31
2019-05-17T08:01:20.415Z,97.00
2019-05-17T08:02:19.856Z,97.41
2019-05-17T08:03:20.969Z,96.90
2019-05-17T08:04:20.479Z,97.10
2019-05-17T08:05:21.180Z,97.92
2019-05-17T08:06:19.855Z,97.52
2019-05-17T08:07:19.661Z,97.41
2019-05-17T08:08:20.805Z,97.41
2019-05-17T08:09:20.471Z,96.80
2019-05-17T08:10:20.424Z,96.59
2019-05-17T08:11:19.685Z,96.95
2019-05-17T08:12:19.976Z,97.37
2019-05-17T08:13:27.291Z,96.95
2019-05-17T08:14:29.392Z,97.27
2019-05-17T08:15:20.011Z,97.06
2019-05-17T08:16:19.619Z,97.22
2019-05-17T08:17:19.842Z,97.22
2019-05-17T08:18:20.401Z,96.60
2019-05-17T08:19:20.490Z,96.30
2019-05-17T08:20:20.380Z,96.40
2019-05-17T08:21:19.851Z,96.40
2019-05-17T08:22:20.152Z,96.19
2019-05-17T08:23:20.179Z,96.25
2019-05-17T08:24:19.651Z,96.45
2019-05-17T08:25:20.021Z,95.64
2019-05-17T08:26:20.071Z,95.32
2019-05-17T08:27:20.092Z,95.32
2019-05-17T08:28:21.379Z,96.35
2019-05-17T08:29:20.354Z,95.49
2019-05-17T08:30:20.613Z,94.87
2019-05-17T08:31:20.182Z,95.12
2019-05-17T08:32:20.789Z,95.90
2019-05-17T08:33:19.493Z,95.12
2019-05-17T08:34:19.747Z,94.30
2019-05-17T08:35:19.816Z,94.92
2019-05-17T08:36:20.108Z,95.12
2019-05-17T08:37:20.415Z,95.02
2019-05-17T08:38:19.802Z,95.32
2019-05-17T08:39:19.832Z,95.90
2019-05-17T08:40:20.035Z,95.49
2019-05-17T08:41:20.783Z,95.32
2019-05-17T08:42:20.475Z,94.56
2019-05-17T08:43:21.091Z,95.43
2019-05-17T08:44:19.227Z,95.02
2019-05-17T08:45:20.584Z,95.07
2019-05-17T08:46:19.886Z,94.51
2019-05-17T08:47:20.884Z,94.10
2019-05-17T08:48:20.662Z,94.34
2019-05-17T08:49:20.239Z,95.12
2019-05-17T08:50:20.022Z,94.92
2019-05-17T08:51:19.668Z,95.18
2019-05-17T08:52:20.007Z,94.87
2019-05-17T08:53:19.920Z,94.05
2019-05-17T08:54:19.579Z,94.11
2019-05-17T08:55:20.431Z,94.01
2019-05-17T08:56:20.511Z,93.70
2019-05-17T08:57:20.488Z,94.01
2019-05-17T08:58:21.447Z,94.21
2019-05-17T08:59:20.233Z,93.55
2019-05-17T09:00:20.745Z,93.96
2019-05-17T09:01:19.595Z,93.35
2019-05-17T09:02:19.899Z,93.76
2019-05-17T09:03:19.563Z,92.94
2019-05-17T09:04:20.130Z,91.87
2019-05-17T09:05:21.247Z,92.18
2019-05-17T09:06:19.912Z,91.31
2019-05-17T09:07:20.385Z,90.39
2019-05-17T09:08:20.504Z,90.30
2019-05-17T09:09:20.435Z,91.42
2019-05-17T09:10:20.585Z,91.31
2019-05-17T09:11:19.683Z,91.22
2019-05-17T09:12:20.470Z,91.17
2019-05-17T09:13:19.596Z,91.48
2019-05-17T09:14:18.325Z,90.70
2019-05-17T09:15:20.394Z,91.07
2019-05-17T09:16:19.656Z,90.86
2019-05-17T09:17:19.419Z,89.74
2019-05-17T09:18:20.422Z,90.91
2019-05-17T09:19:19.448Z,90.45
2019-05-17T09:20:20.263Z,90.15
2019-05-17T09:21:18.271Z,90.86
2019-05-17T09:22:19.767Z,91.44
2019-05-17T09:23:19.679Z,90.82
2019-05-17T09:24:19.494Z,89.53
2019-05-17T09:25:21.423Z,91.07
2019-05-17T09:26:20.020Z,91.74
2019-05-17T09:27:19.750Z,91.33
2019-05-17T09:28:20.302Z,90.78
2019-05-17T09:29:20.101Z,90.33
2019-05-17T09:30:20.308Z,89.17
2019-05-17T09:31:20.236Z,88.41
2019-05-17T09:32:20.123Z,86.57
2019-05-17T09:33:19.214Z,85.59
2019-05-17T09:34:20.184Z,86.41
2019-05-17T09:35:20.555Z,86.67
2019-05-17T09:36:20.306Z,86.53
2019-05-17T09:37:19.858Z,86.69
2019-05-17T09:38:20.152Z,87.47
2019-05-17T09:39:19.974Z,85.94
2019-05-17T09:40:20.008Z,85.51
2019-05-17T09:41:20.023Z,87.51
2019-05-17T09:42:20.752Z,86.08
2019-05-17T09:43:20.299Z,85.51
2019-05-17T09:44:20.545Z,86.53
2019-05-17T09:45:20.223Z,86.94
2019-05-17T09:46:19.679Z,88.00
2019-05-17T09:47:20.455Z,88.10
2019-05-17T09:48:19.638Z,88.24
2019-05-17T09:49:19.258Z,88.85
2019-05-17T09:50:19.986Z,88.55
2019-05-17T09:51:19.639Z,89.17
2019-05-17T09:52:19.933Z,89.47
2019-05-17T09:53:20.076Z,89.61
2019-05-17T09:54:19.465Z,89.82
2019-05-17T09:55:19.618Z,89.37
2019-05-17T09:56:17.836Z,90.08
2019-05-17T09:57:20.273Z,90.25
2019-05-17T09:58:21.366Z,89.43
2019-05-17T09:59:17.823Z,89.32
2019-05-17T10:00:20.619Z,89.73
2019-05-17T10:01:19.627Z,89.53
2019-05-17T10:02:20.170Z,89.98
2019-05-17T10:03:23.308Z,89.00
2019-05-17T10:04:19.851Z,90.33
2019-05-17T10:05:19.981Z,90.90
2019-05-17T10:06:20.005Z,90.29
2019-05-17T10:07:17.720Z,90.43
2019-05-17T10:08:17.724Z,90.43
2019-05-17T10:09:19.570Z,90.53
2019-05-17T10:10:20.074Z,91.66
2019-05-17T10:11:20.077Z,91.15
2019-05-17T10:12:20.100Z,91.86
2019-05-17T10:13:20.090Z,91.09
2019-05-17T10:14:25.816Z,91.29
2019-05-17T10:15:20.731Z,91.80
2019-05-17T10:16:20.033Z,91.19
2019-05-17T10:17:17.605Z,91.86
2019-05-17T10:18:19.565Z,90.39
2019-05-17T10:19:20.828Z,89.58
2019-05-17T10:20:19.985Z,90.25
2019-05-17T10:21:19.719Z,89.53
2019-05-17T10:22:20.014Z,89.88
2019-05-17T10:23:19.663Z,89.26
2019-05-17T10:24:19.921Z,90.19
2019-05-17T10:25:19.959Z,90.08
2019-05-17T10:26:19.541Z,90.29
2019-05-17T10:27:19.666Z,91.11
2019-05-17T10:28:20.534Z,90.80
2019-05-17T10:29:17.463Z,89.58
2019-05-17T10:30:17.455Z,89.88
2019-05-17T10:31:19.584Z,89.06
2019-05-17T10:32:20.301Z,89.84
2019-05-17T10:33:17.435Z,88.78
2019-05-17T10:34:20.202Z,89.14
2019-05-17T10:35:17.396Z,88.63
2019-05-17T10:36:20.013Z,88.43
2019-05-17T10:37:20.147Z,88.02
2019-05-17T10:38:19.336Z,88.02
2019-05-17T10:39:19.318Z,88.04
2019-05-17T10:40:17.340Z,87.84
2019-05-17T10:41:19.704Z,86.41
2019-05-17T10:42:17.321Z,85.49
2019-05-17T10:43:17.306Z,86.00
2019-05-17T10:44:17.294Z,85.45
2019-05-17T10:45:19.698Z,85.31
2019-05-17T10:46:17.275Z,85.72
2019-05-17T10:47:19.425Z,85.72
2019-05-17T10:48:17.265Z,84.90
2019-05-17T10:49:17.243Z,85.72
2019-05-17T10:50:17.228Z,85.51
2019-05-17T10:51:17.356Z,84.43
2019-05-17T10:52:17.206Z,85.80
2019-05-17T10:53:17.192Z,85.80
2019-05-17T10:54:17.181Z,86.00
2019-05-17T10:55:17.172Z,86.61
2019-05-17T10:56:19.440Z,87.53
2019-05-17T10:57:19.314Z,86.61
2019-05-17T10:58:17.139Z,87.37
2019-05-17T10:59:17.131Z,87.94
2019-05-17T11:00:19.569Z,87.84
2019-05-17T11:01:17.108Z,87.32
2019-05-17T11:02:19.484Z,87.77
2019-05-17T11:03:17.106Z,88.18
2019-05-17T11:04:19.638Z,88.22
2019-05-17T11:05:17.056Z,87.82
2019-05-17T11:06:19.610Z,88.73
2019-05-17T11:07:19.748Z,88.22
2019-05-17T11:08:19.570Z,89.65
2019-05-17T11:09:20.168Z,88.69
2019-05-17T11:10:19.289Z,89.61
2019-05-17T11:11:19.822Z,89.51
2019-05-17T11:12:16.979Z,88.55
2019-05-17T11:13:16.966Z,88.14
2019-05-17T11:14:16.955Z,89.10
2019-05-17T11:15:16.974Z,89.61
2019-05-17T11:16:16.933Z,90.26
2019-05-17T11:17:16.922Z,90.16
2019-05-17T11:18:16.911Z,90.63
2019-05-17T11:19:16.901Z,91.49
2019-05-17T11:20:16.887Z,91.44
2019-05-17T11:21:16.893Z,91.65
2019-05-17T11:22:16.867Z,91.24
2019-05-17T11:23:16.854Z,89.86
2019-05-17T11:24:16.860Z,89.86
2019-05-17T11:25:16.835Z,89.65
2019-05-17T11:26:16.818Z,90.01
2019-05-17T11:27:16.827Z,90.22
2019-05-17T11:28:16.796Z,90.42
2019-05-17T11:29:16.788Z,89.26
2019-05-17T11:30:16.775Z,89.57
2019-05-17T11:31:16.762Z,89.42
2019-05-17T11:32:16.750Z,89.22
2019-05-17T11:33:16.754Z,89.01
2019-05-17T11:34:16.734Z,88.10
2019-05-17T11:35:16.717Z,87.79
2019-05-17T11:36:16.728Z,87.02
2019-05-17T11:37:16.695Z,88.28
2019-05-17T11:38:16.699Z,87.84
2019-05-17T11:39:16.695Z,87.84
2019-05-17T11:40:16.664Z,88.40
2019-05-17T11:41:21.603Z,87.90
2019-05-17T11:42:17.642Z,87.79
2019-05-17T11:43:16.627Z,88.06
2019-05-17T11:44:16.617Z,87.59
2019-05-17T11:45:27.417Z,87.59
2019-05-17T11:46:17.622Z,88.06
2019-05-17T11:47:16.589Z,88.26
2019-05-17T11:48:16.600Z,88.36
2019-05-17T11:49:16.569Z,87.24
2019-05-17T11:50:16.552Z,87.35
2019-05-17T11:51:16.559Z,85.35
2019-05-17T11:52:16.536Z,85.21
2019-05-17T11:53:16.515Z,84.50
2019-05-17T11:54:16.502Z,84.39
2019-05-17T11:55:16.491Z,85.31
2019-05-17T11:56:16.487Z,83.58
2019-05-17T11:57:16.497Z,82.97
2019-05-17T11:58:16.459Z,83.68
2019-05-17T11:59:16.448Z,82.21
2019-05-17T12:00:16.441Z,81.81
2019-05-17T12:01:16.425Z,82.46
2019-05-17T12:02:16.414Z,82.87
2019-05-17T12:03:16.423Z,83.89
2019-05-17T12:04:16.391Z,82.76
2019-05-17T12:05:16.382Z,83.68
2019-05-17T12:06:16.367Z,83.68
2019-05-17T12:07:16.355Z,82.76
2019-05-17T12:08:16.348Z,84.09
2019-05-17T12:09:16.354Z,84.53
2019-05-17T12:10:16.330Z,85.86
2019-05-17T12:11:16.312Z,84.37
2019-05-17T12:12:16.301Z,85.39
2019-05-17T12:13:16.288Z,86.00
2019-05-17T12:14:16.275Z,85.80
2019-05-17T12:15:16.287Z,85.35
2019-05-17T12:16:16.255Z,85.35
2019-05-17T12:17:16.247Z,83.58
2019-05-17T12:18:16.232Z,82.97
2019-05-17T12:19:16.225Z,82.73
2019-05-17T12:20:16.217Z,82.12
2019-05-17T12:21:16.223Z,82.89
2019-05-17T12:22:16.188Z,80.11
2019-05-17T12:23:16.221Z,80.72
2019-05-17T12:24:16.166Z,80.68
2019-05-17T12:25:16.154Z,80.40
2019-05-17T12:26:16.142Z,79.51
2019-05-17T12:27:16.835Z,78.46
2019-05-17T12:28:16.121Z,78.16
2019-05-17T12:29:16.109Z,76.40
2019-05-17T12:30:16.104Z,76.29
2019-05-17T12:31:16.085Z,75.93
2019-05-17T12:32:17.113Z,76.13
2019-05-17T12:33:16.095Z,77.01
2019-05-17T12:34:16.057Z,76.54
2019-05-17T12:35:16.040Z,74.51
2019-05-17T12:36:16.031Z,75.01
2019-05-17T12:37:16.020Z,73.93
2019-05-17T12:38:16.012Z,74.54
2019-05-17T12:39:16.033Z,74.34
2019-05-17T12:40:15.993Z,72.78
2019-05-17T12:41:15.974Z,73.56
2019-05-17T12:42:15.963Z,73.56
2019-05-17T12:43:15.954Z,73.53
2019-05-17T12:44:15.949Z,71.64
2019-05-17T12:45:15.949Z,71.37
2019-05-17T12:46:15.919Z,72.31
2019-05-17T12:47:15.905Z,74.14
2019-05-17T12:48:15.909Z,74.54
2019-05-17T12:49:15.884Z,74.17
2019-05-17T12:50:15.872Z,75.39
2019-05-17T12:51:15.878Z,74.58
2019-05-17T12:52:15.854Z,73.70